createdAt,value
2019-01-31T00:00:29.399Z,81.08
2019-01-31T00:03:25.103Z,81.09
2019-01-31T00:05:59.617Z,81.08
2019-01-31T00:08:46.184Z,81.09
2019-01-31T00:11:19.834Z,81.22
2019-01-31T00:14:03.215Z,81.29
2019-01-31T00:16:57.829Z,81.18
2019-01-31T00:19:46.324Z,81.47
2019-01-31T00:22:53.037Z,81.46
2019-01-31T00:25:44.365Z,81.70
2019-01-31T00:28:31.283Z,81.58
2019-01-31T00:31:15.289Z,82.00
2019-01-31T00:33:56.153Z,81.85
2019-01-31T00:36:30.553Z,81.69
2019-01-31T00:39:10.836Z,81.90
2019-01-31T00:41:51.264Z,81.79
2019-01-31T00:44:32.020Z,81.90
2019-01-31T00:47:03.641Z,81.88
2019-01-31T00:49:41.372Z,82.00
2019-01-31T00:52:13.109Z,82.14
2019-01-31T00:54:47.543Z,82.24
2019-01-31T00:57:44.190Z,82.35
2019-01-31T01:00:31.277Z,82.27
2019-01-31T01:03:05.438Z,82.27
2019-01-31T01:05:45.686Z,82.27
2019-01-31T01:08:20.080Z,82.33
2019-01-31T01:11:09.243Z,82.41
2019-01-31T01:13:55.738Z,82.51
2019-01-31T01:16:27.427Z,82.56
2019-01-31T01:19:17.276Z,82.61
2019-01-31T01:21:51.764Z,82.43
2019-01-31T01:24:26.053Z,82.51
2019-01-31T01:27:14.357Z,82.65
2019-01-31T01:29:51.743Z,82.65
2019-01-31T01:32:32.305Z,82.57
2019-01-31T01:35:06.963Z,82.41
2019-01-31T01:37:59.815Z,82.46
2019-01-31T01:40:40.186Z,82.63
2019-01-31T01:43:28.715Z,82.66
2019-01-31T01:46:00.437Z,82.74
2019-01-31T01:48:53.089Z,82.74
2019-01-31T01:51:36.473Z,82.84
2019-01-31T01:54:13.385Z,82.84
2019-01-31T01:56:47.511Z,82.78
2019-01-31T01:59:31.191Z,82.70
2019-01-31T02:02:28.719Z,82.59
2019-01-31T02:05:09.027Z,82.60
2019-01-31T02:07:58.503Z,82.50
2019-01-31T02:10:35.953Z,82.40
2019-01-31T02:13:19.365Z,82.37
2019-01-31T02:16:02.972Z,82.29
2019-01-31T02:18:37.254Z,82.30
2019-01-31T02:21:11.829Z,82.33
2019-01-31T02:24:01.542Z,82.29
2019-01-31T02:26:55.396Z,82.27
2019-01-31T02:29:35.897Z,82.21
2019-01-31T02:32:13.425Z,82.24
2019-01-31T02:34:54.292Z,82.12
2019-01-31T02:37:54.726Z,82.09
2019-01-31T02:40:55.151Z,82.06
2019-01-31T02:43:32.575Z,82.14
2019-01-31T02:46:16.191Z,82.21
2019-01-31T02:49:17.983Z,82.24
2019-01-31T02:51:52.288Z,82.26
2019-01-31T02:54:23.966Z,82.32
2019-01-31T02:57:07.710Z,82.41
2019-01-31T03:00:12.847Z,82.45
2019-01-31T03:03:03.991Z,82.41
2019-01-31T03:05:44.321Z,82.37
2019-01-31T03:08:24.679Z,82.40
2019-01-31T03:10:56.355Z,82.47
2019-01-31T03:13:33.884Z,82.49
2019-01-31T03:16:26.498Z,82.64
2019-01-31T03:19:19.179Z,82.75
2019-01-31T03:22:07.734Z,82.74
2019-01-31T03:24:45.140Z,82.71
2019-01-31T03:27:44.839Z,82.74
2019-01-31T03:30:34.618Z,82.80
2019-01-31T03:33:15.133Z,82.75
2019-01-31T03:36:02.993Z,82.83
2019-01-31T03:38:55.068Z,82.86
2019-01-31T03:41:33.040Z,82.83
2019-01-31T03:44:31.638Z,82.85
2019-01-31T03:47:06.051Z,82.96
2019-01-31T03:49:55.833Z,82.87
2019-01-31T03:52:39.000Z,82.75
2019-01-31T03:55:22.255Z,82.82
2019-01-31T03:57:56.681Z,82.77
2019-01-31T04:00:31.348Z,82.72
2019-01-31T04:03:02.985Z,82.64
2019-01-31T04:05:37.850Z,82.59
2019-01-31T04:08:06.467Z,82.48
2019-01-31T04:10:34.933Z,82.45
2019-01-31T04:13:03.434Z,82.46
2019-01-31T04:15:31.972Z,82.40
2019-01-31T04:18:00.435Z,82.36
2019-01-31T04:20:28.939Z,82.33
2019-01-31T04:22:57.407Z,82.36
2019-01-31T04:25:25.888Z,82.40
2019-01-31T04:27:54.391Z,82.31
2019-01-31T04:30:23.132Z,82.21
2019-01-31T04:32:51.612Z,82.19
2019-01-31T04:35:20.137Z,82.13
2019-01-31T04:37:48.611Z,82.16
2019-01-31T04:40:17.644Z,82.15
2019-01-31T04:42:46.146Z,82.08
2019-01-31T04:45:14.676Z,82.00
2019-01-31T04:47:43.161Z,81.93
2019-01-31T04:50:13.959Z,81.88
2019-01-31T04:52:42.426Z,81.85
2019-01-31T04:55:11.212Z,81.80
2019-01-31T04:57:39.667Z,81.75
2019-01-31T05:00:14.372Z,81.68
2019-01-31T05:02:42.907Z,81.68
2019-01-31T05:05:11.496Z,81.57
2019-01-31T05:07:40.231Z,81.57
2019-01-31T05:10:13.522Z,81.57
2019-01-31T05:12:42.116Z,81.58
2019-01-31T05:15:12.818Z,81.61
2019-01-31T05:17:41.284Z,81.61
2019-01-31T05:20:14.905Z,81.65
2019-01-31T05:22:43.366Z,81.61
2019-01-31T05:25:13.466Z,81.57
2019-01-31T05:27:43.126Z,81.55
2019-01-31T05:30:14.129Z,81.54
2019-01-31T05:32:42.587Z,81.60
2019-01-31T05:35:11.916Z,81.52
2019-01-31T05:37:40.389Z,81.35
2019-01-31T05:40:11.570Z,81.35
2019-01-31T05:42:40.087Z,81.57
2019-01-31T05:45:11.887Z,81.55
2019-01-31T05:47:40.378Z,81.52
2019-01-31T05:50:14.142Z,81.44
2019-01-31T05:52:42.601Z,81.36
2019-01-31T05:55:12.282Z,81.30
2019-01-31T05:57:40.746Z,81.26
2019-01-31T06:00:12.386Z,81.28
2019-01-31T06:02:40.868Z,81.44
2019-01-31T06:05:10.505Z,81.41
2019-01-31T06:07:38.939Z,81.49
2019-01-31T06:10:10.387Z,81.52
2019-01-31T06:12:38.834Z,81.50
2019-01-31T06:15:10.471Z,81.43
2019-01-31T06:17:38.975Z,81.29
2019-01-31T06:20:10.373Z,81.31
2019-01-31T06:22:38.840Z,81.35
2019-01-31T06:25:07.446Z,81.18
2019-01-31T06:27:35.893Z,81.32
2019-01-31T06:30:07.358Z,81.12
2019-01-31T06:32:35.846Z,81.19
2019-01-31T06:35:06.650Z,81.17
2019-01-31T06:37:35.104Z,81.17
2019-01-31T06:40:04.925Z,81.21
2019-01-31T06:42:33.379Z,81.36
2019-01-31T06:45:01.847Z,81.11
2019-01-31T06:47:30.371Z,81.15
2019-01-31T06:49:58.830Z,81.08
2019-01-31T06:52:27.371Z,81.04
2019-01-31T06:54:55.911Z,80.96
2019-01-31T06:57:24.373Z,80.81
2019-01-31T06:59:52.861Z,80.83
2019-01-31T07:02:21.361Z,80.68
2019-01-31T07:04:49.843Z,80.64
2019-01-31T07:07:18.317Z,80.69
2019-01-31T07:09:46.810Z,80.67
2019-01-31T07:12:16.255Z,80.72
2019-01-31T07:14:44.710Z,80.88
2019-01-31T07:17:13.322Z,80.76
2019-01-31T07:19:41.733Z,80.69
2019-01-31T07:22:10.284Z,80.72
2019-01-31T07:24:38.782Z,80.60
2019-01-31T07:27:07.243Z,80.64
2019-01-31T07:29:35.716Z,80.60
2019-01-31T07:32:04.283Z,80.66
2019-01-31T07:34:32.742Z,80.56
2019-01-31T07:37:01.202Z,80.74
2019-01-31T07:39:29.722Z,80.51
2019-01-31T07:41:58.186Z,80.46
2019-01-31T07:44:26.648Z,80.39
2019-01-31T07:46:55.138Z,80.26
2019-01-31T07:49:23.612Z,80.12
2019-01-31T07:51:52.075Z,80.26
2019-01-31T07:54:20.739Z,80.18
2019-01-31T07:56:49.193Z,80.07
2019-01-31T07:59:17.660Z,80.24
2019-01-31T08:01:46.183Z,80.14
2019-01-31T08:04:14.752Z,80.14
2019-01-31T08:06:43.198Z,80.11
2019-01-31T08:09:11.703Z,80.01
2019-01-31T08:11:40.174Z,79.92
2019-01-31T08:14:09.772Z,79.93
2019-01-31T08:16:38.278Z,79.95
2019-01-31T08:19:06.818Z,80.04
2019-01-31T08:21:35.294Z,80.03
2019-01-31T08:24:03.784Z,79.96
2019-01-31T08:26:32.251Z,80.01
2019-01-31T08:29:00.717Z,79.94
2019-01-31T08:31:29.237Z,79.73
2019-01-31T08:33:57.724Z,79.64
2019-01-31T08:36:26.171Z,79.48
2019-01-31T08:38:54.675Z,79.18
2019-01-31T08:41:23.164Z,79.12
2019-01-31T08:43:51.638Z,79.08
2019-01-31T08:46:20.139Z,78.84
2019-01-31T08:48:48.612Z,78.69
2019-01-31T08:51:17.077Z,78.65
2019-01-31T08:53:45.583Z,78.58
2019-01-31T08:56:14.063Z,78.72
2019-01-31T08:58:42.545Z,78.63
2019-01-31T09:01:11.029Z,78.50
2019-01-31T09:03:39.486Z,78.48
2019-01-31T09:06:07.962Z,78.35
2019-01-31T09:08:36.476Z,78.00
2019-01-31T09:11:05.105Z,78.26
2019-01-31T09:13:33.559Z,78.04
2019-01-31T09:16:03.152Z,77.97
2019-01-31T09:18:31.613Z,77.80
2019-01-31T09:21:12.494Z,77.67
2019-01-31T09:23:47.065Z,77.48
2019-01-31T09:26:33.713Z,76.90
2019-01-31T09:29:08.004Z,76.87
2019-01-31T09:31:56.365Z,76.72
2019-01-31T09:34:56.739Z,76.69
2019-01-31T09:37:55.519Z,76.75
2019-01-31T09:40:39.316Z,76.42
2019-01-31T09:43:16.178Z,76.53
2019-01-31T09:45:56.865Z,76.27
2019-01-31T09:48:34.139Z,76.42
2019-01-31T09:51:26.816Z,76.37
2019-01-31T09:54:04.306Z,76.28
2019-01-31T09:56:55.637Z,76.02
2019-01-31T09:59:36.112Z,75.94
2019-01-31T10:02:24.144Z,75.97
2019-01-31T10:05:01.376Z,76.08
2019-01-31T10:07:41.759Z,75.93
2019-01-31T10:10:36.059Z,75.84
2019-01-31T10:13:10.439Z,75.47
2019-01-31T10:15:47.509Z,75.23
2019-01-31T10:18:37.045Z,74.53
2019-01-31T10:21:11.776Z,74.53
2019-01-31T10:23:49.352Z,74.59
2019-01-31T10:26:23.778Z,74.50
2019-01-31T10:29:22.018Z,74.50
2019-01-31T10:32:02.898Z,74.00
2019-01-31T10:34:53.975Z,73.71
2019-01-31T10:37:28.381Z,73.74
2019-01-31T10:40:33.590Z,73.72
2019-01-31T10:43:23.122Z,73.76
2019-01-31T10:46:00.044Z,73.76
2019-01-31T10:48:50.067Z,73.22
2019-01-31T10:51:41.179Z,73.14
2019-01-31T10:54:18.498Z,72.92
2019-01-31T10:56:52.683Z,72.98
2019-01-31T10:59:24.357Z,73.31
2019-01-31T11:01:55.990Z,72.95
2019-01-31T11:04:45.772Z,72.39
2019-01-31T11:07:26.385Z,72.56
2019-01-31T11:10:18.924Z,72.35
2019-01-31T11:13:00.709Z,72.39
2019-01-31T11:15:44.228Z,71.76
2019-01-31T11:18:24.278Z,71.12
2019-01-31T11:21:22.356Z,71.70
2019-01-31T11:23:53.987Z,71.57
2019-01-31T11:26:31.339Z,71.72
2019-01-31T11:29:05.653Z,72.02
2019-01-31T11:31:45.697Z,72.02
2019-01-31T11:34:37.743Z,71.27
2019-01-31T11:37:27.322Z,71.42
2019-01-31T11:39:59.239Z,71.42
2019-01-31T11:42:42.128Z,71.22
2019-01-31T11:45:25.841Z,71.33
2019-01-31T11:48:17.349Z,71.20
2019-01-31T11:51:11.736Z,71.36
2019-01-31T11:53:58.280Z,71.05
2019-01-31T11:56:45.032Z,70.36
2019-01-31T11:59:13.594Z,70.85
2019-01-31T12:01:42.209Z,70.77
2019-01-31T12:04:10.906Z,70.77
2019-01-31T12:06:39.588Z,70.57
2019-01-31T12:09:10.701Z,70.62
2019-01-31T12:11:39.194Z,70.67
2019-01-31T12:14:07.705Z,70.18
2019-01-31T12:16:36.257Z,70.18
2019-01-31T12:19:07.484Z,70.41
2019-01-31T12:21:35.541Z,70.17
2019-01-31T12:24:04.075Z,70.13
2019-01-31T12:26:32.529Z,70.13
2019-01-31T12:29:01.044Z,70.16
2019-01-31T12:31:29.498Z,70.41
2019-01-31T12:33:57.958Z,71.25
2019-01-31T12:36:26.445Z,71.25
2019-01-31T12:38:55.162Z,70.37
2019-01-31T12:41:23.670Z,70.37
2019-01-31T12:43:52.175Z,70.73
2019-01-31T12:46:20.710Z,70.25
2019-01-31T12:48:49.167Z,70.25
2019-01-31T12:51:17.657Z,70.82
2019-01-31T12:53:46.118Z,70.63
2019-01-31T12:56:14.572Z,70.66
2019-01-31T12:58:43.079Z,70.94
2019-01-31T13:01:11.619Z,70.99
2019-01-31T13:03:40.091Z,71.02
2019-01-31T13:06:08.598Z,70.52
2019-01-31T13:08:37.064Z,70.57
2019-01-31T13:11:05.666Z,70.38
2019-01-31T13:13:45.176Z,70.38
2019-01-31T13:16:04.655Z,70.99
2019-01-31T13:18:33.123Z,70.77
2019-01-31T13:21:01.609Z,70.61
2019-01-31T13:23:30.986Z,70.61
2019-01-31T13:25:59.454Z,70.93
2019-01-31T13:28:28.027Z,71.26
2019-01-31T13:30:56.579Z,71.17
2019-01-31T13:33:25.034Z,70.67
2019-01-31T13:35:53.521Z,71.46
2019-01-31T13:38:21.985Z,71.22
2019-01-31T13:40:50.529Z,71.22
2019-01-31T13:43:19.116Z,71.61
2019-01-31T13:45:47.575Z,71.71
2019-01-31T13:48:16.026Z,72.55
2019-01-31T13:50:44.619Z,72.84
2019-01-31T13:53:13.217Z,72.84
2019-01-31T13:55:41.851Z,72.69
2019-01-31T13:58:10.478Z,72.72
2019-01-31T14:00:39.336Z,72.85
2019-01-31T14:03:07.897Z,72.85
2019-01-31T14:05:36.373Z,73.41
2019-01-31T14:08:05.188Z,72.98
2019-01-31T14:10:33.641Z,72.98
2019-01-31T14:13:02.139Z,73.22
2019-01-31T14:15:34.067Z,73.22
2019-01-31T14:18:02.771Z,73.52
2019-01-31T14:20:31.293Z,73.50
2019-01-31T14:23:00.312Z,73.03
2019-01-31T14:25:29.803Z,73.03
2019-01-31T14:27:58.307Z,73.34
2019-01-31T14:30:34.735Z,73.33
2019-01-31T14:33:03.481Z,73.35
2019-01-31T14:35:32.146Z,73.40
2019-01-31T14:38:00.754Z,73.39
2019-01-31T14:40:29.247Z,73.09
2019-01-31T14:42:57.748Z,73.35
2019-01-31T14:45:26.571Z,73.35
2019-01-31T14:47:55.840Z,73.52
2019-01-31T14:50:32.397Z,73.34
2019-01-31T14:53:01.039Z,73.34
2019-01-31T14:55:30.199Z,73.91
2019-01-31T14:57:58.773Z,73.76
2019-01-31T15:00:31.966Z,73.76
2019-01-31T15:03:00.435Z,74.39
2019-01-31T15:05:29.662Z,74.35
2019-01-31T15:07:58.142Z,74.34
2019-01-31T15:10:28.648Z,74.79
2019-01-31T15:12:57.238Z,74.79
2019-01-31T15:15:25.716Z,74.46
2019-01-31T15:17:54.652Z,74.63
2019-01-31T15:20:37.794Z,74.78
2019-01-31T15:23:02.752Z,74.96
2019-01-31T15:25:31.288Z,75.12
2019-01-31T15:28:00.973Z,75.23
2019-01-31T15:30:32.884Z,75.30
2019-01-31T15:33:02.535Z,75.38
2019-01-31T15:35:31.123Z,75.49
2019-01-31T15:37:59.578Z,75.66
2019-01-31T15:40:34.327Z,75.65
2019-01-31T15:43:03.068Z,75.60
2019-01-31T15:45:31.603Z,75.57
2019-01-31T15:48:00.069Z,75.57
2019-01-31T15:50:28.651Z,75.75
2019-01-31T15:52:57.203Z,75.75
2019-01-31T15:55:27.015Z,76.15
2019-01-31T15:57:55.669Z,76.29
2019-01-31T16:00:45.264Z,76.23
2019-01-31T16:03:16.693Z,76.29
2019-01-31T16:05:45.331Z,76.48
2019-01-31T16:08:14.046Z,76.36
2019-01-31T16:10:42.663Z,76.36
2019-01-31T16:13:11.309Z,76.78
2019-01-31T16:15:40.191Z,76.86
2019-01-31T16:18:10.506Z,76.96
2019-01-31T16:20:39.043Z,77.00
2019-01-31T16:23:09.154Z,77.05
2019-01-31T16:25:37.733Z,77.00
2019-01-31T16:28:06.348Z,77.07
2019-01-31T16:30:35.017Z,77.09
2019-01-31T16:33:03.633Z,77.20
2019-01-31T16:35:32.483Z,77.23
2019-01-31T16:38:01.703Z,77.25
2019-01-31T16:40:30.897Z,77.30
2019-01-31T16:43:00.113Z,77.39
2019-01-31T16:45:28.646Z,77.50
2019-01-31T16:47:57.145Z,77.58
2019-01-31T16:50:25.793Z,77.79
2019-01-31T16:52:54.260Z,77.86
2019-01-31T16:55:30.196Z,77.99
2019-01-31T16:57:58.897Z,78.13
2019-01-31T17:00:32.219Z,78.26
2019-01-31T17:03:01.506Z,78.38
2019-01-31T17:05:31.925Z,78.58
2019-01-31T17:08:00.912Z,78.63
2019-01-31T17:10:29.505Z,78.71
2019-01-31T17:12:58.062Z,78.79
2019-01-31T17:15:26.815Z,78.75
2019-01-31T17:17:55.395Z,78.78
2019-01-31T17:20:27.051Z,78.83
2019-01-31T17:22:55.512Z,78.78
2019-01-31T17:25:24.086Z,78.83
2019-01-31T17:27:52.929Z,78.93
2019-01-31T17:30:26.106Z,79.12
2019-01-31T17:32:54.838Z,79.27
2019-01-31T17:35:23.545Z,79.39
2019-01-31T17:37:52.101Z,79.48
2019-01-31T17:40:28.830Z,79.74
2019-01-31T17:42:57.304Z,79.90
2019-01-31T17:45:30.349Z,80.32
2019-01-31T17:47:57.905Z,80.32
2019-01-31T17:50:26.402Z,80.50
2019-01-31T17:52:54.854Z,80.79
2019-01-31T17:55:25.115Z,81.02
2019-01-31T17:57:53.650Z,81.23
2019-01-31T18:00:31.877Z,81.38
2019-01-31T18:03:00.342Z,81.84
2019-01-31T18:05:28.880Z,87.83
2019-01-31T18:07:57.399Z,84.29
2019-01-31T18:10:25.875Z,82.69
2019-01-31T18:12:54.429Z,81.88
2019-01-31T18:15:22.938Z,81.69
2019-01-31T18:17:51.394Z,81.47
2019-01-31T18:20:21.602Z,81.53
2019-01-31T18:22:50.292Z,81.52
2019-01-31T18:25:18.749Z,81.77
2019-01-31T18:27:47.209Z,89.24
2019-01-31T18:30:18.897Z,92.23
2019-01-31T18:32:47.552Z,86.08
2019-01-31T18:35:17.080Z,83.59
2019-01-31T18:37:46.721Z,82.36
2019-01-31T18:40:29.397Z,81.73
2019-01-31T18:42:57.909Z,81.67
2019-01-31T18:45:29.103Z,81.67
2019-01-31T18:47:57.611Z,81.68
2019-01-31T18:50:31.363Z,81.86
2019-01-31T18:52:59.829Z,82.03
2019-01-31T18:55:29.028Z,82.14
2019-01-31T18:57:57.785Z,82.22
2019-01-31T19:00:28.683Z,82.38
2019-01-31T19:02:57.326Z,82.60
2019-01-31T19:05:25.923Z,82.80
2019-01-31T19:07:54.950Z,82.95
2019-01-31T19:10:23.649Z,83.11
2019-01-31T19:12:52.252Z,83.27
2019-01-31T19:15:25.192Z,83.51
2019-01-31T19:18:04.949Z,83.56
2019-01-31T19:20:29.525Z,83.68
2019-01-31T19:22:59.838Z,83.74
2019-01-31T19:25:28.740Z,83.97
2019-01-31T19:27:57.355Z,84.06
2019-01-31T19:30:34.708Z,84.21
2019-01-31T19:33:03.365Z,84.26
2019-01-31T19:35:31.969Z,84.24
2019-01-31T19:38:02.398Z,84.38
2019-01-31T19:40:33.166Z,84.44
2019-01-31T19:43:01.703Z,84.40
2019-01-31T19:45:37.896Z,84.59
2019-01-31T19:48:06.612Z,84.71
2019-01-31T19:50:35.168Z,84.74
2019-01-31T19:53:04.755Z,84.81
2019-01-31T19:55:33.356Z,84.86
2019-01-31T19:58:01.993Z,84.84
2019-01-31T20:00:30.570Z,84.88
2019-01-31T20:02:59.048Z,85.01
2019-01-31T20:05:27.587Z,84.95
2019-01-31T20:07:56.544Z,84.91
2019-01-31T20:10:27.370Z,84.88
2019-01-31T20:12:56.301Z,85.09
2019-01-31T20:15:24.975Z,85.06
2019-01-31T20:17:53.520Z,85.12
2019-01-31T20:20:26.462Z,85.23
2019-01-31T20:22:55.909Z,85.29
2019-01-31T20:25:24.622Z,85.30
2019-01-31T20:27:53.166Z,85.35
2019-01-31T20:30:27.574Z,85.36
2019-01-31T20:32:56.562Z,85.25
2019-01-31T20:35:25.131Z,85.26
2019-01-31T20:37:53.693Z,85.38
2019-01-31T20:40:25.456Z,85.48
2019-01-31T20:42:54.272Z,85.48
2019-01-31T20:45:22.818Z,85.54
2019-01-31T20:47:51.301Z,85.43
2019-01-31T20:50:25.664Z,85.48
2019-01-31T20:52:54.366Z,85.37
2019-01-31T20:55:23.007Z,85.58
2019-01-31T20:57:51.567Z,85.65
2019-01-31T21:00:33.368Z,85.66
2019-01-31T21:03:01.961Z,85.51
2019-01-31T21:05:30.577Z,85.69
2019-01-31T21:07:59.135Z,85.67
2019-01-31T21:10:27.823Z,85.87
2019-01-31T21:12:56.424Z,85.87
2019-01-31T21:15:26.122Z,85.87
2019-01-31T21:17:54.921Z,85.93
2019-01-31T21:20:26.414Z,85.93
2019-01-31T21:22:55.585Z,86.04
2019-01-31T21:25:24.352Z,86.10
2019-01-31T21:27:52.982Z,86.20
2019-01-31T21:30:30.843Z,86.23
2019-01-31T21:32:59.415Z,86.23
2019-01-31T21:35:28.720Z,86.26
2019-01-31T21:37:57.378Z,86.24
2019-01-31T21:40:28.087Z,86.14
2019-01-31T21:42:57.992Z,85.96
2019-01-31T21:45:26.732Z,85.94
2019-01-31T21:47:55.279Z,85.96
2019-01-31T21:50:30.221Z,86.13
2019-01-31T21:52:58.785Z,86.06
2019-01-31T21:55:27.419Z,86.02
2019-01-31T21:57:56.019Z,86.12
2019-01-31T22:00:32.388Z,86.19
2019-01-31T22:03:01.213Z,86.10
2019-01-31T22:05:29.865Z,86.20
2019-01-31T22:07:58.415Z,86.32
2019-01-31T22:10:27.081Z,86.31
2019-01-31T22:12:56.057Z,86.40
2019-01-31T22:15:26.655Z,86.40
2019-01-31T22:17:59.765Z,86.37
2019-01-31T22:20:25.706Z,86.29
2019-01-31T22:22:54.361Z,86.21
2019-01-31T22:25:23.769Z,86.05
2019-01-31T22:27:52.398Z,85.91
2019-01-31T22:30:29.516Z,85.91
2019-01-31T22:32:58.142Z,85.66
2019-01-31T22:35:26.830Z,85.85
2019-01-31T22:37:55.423Z,86.01
2019-01-31T22:40:24.053Z,86.13
2019-01-31T22:42:52.599Z,86.15
2019-01-31T22:45:23.519Z,86.03
2019-01-31T22:47:52.142Z,86.10
2019-01-31T22:50:22.654Z,86.11
2019-01-31T22:52:51.629Z,86.17
2019-01-31T22:55:22.228Z,86.25
2019-01-31T22:57:50.792Z,86.22
2019-01-31T23:00:44.796Z,86.30
2019-01-31T23:03:13.417Z,86.26
2019-01-31T23:05:42.238Z,86.31
2019-01-31T23:08:10.827Z,86.29
2019-01-31T23:10:39.379Z,86.29
2019-01-31T23:13:07.941Z,86.31
2019-01-31T23:15:36.562Z,86.32
2019-01-31T23:18:06.133Z,86.30
2019-01-31T23:20:34.753Z,86.21
2019-01-31T23:23:03.331Z,86.22
2019-01-31T23:25:39.811Z,86.22
2019-01-31T23:28:02.178Z,86.19
2019-01-31T23:30:30.782Z,86.26
2019-01-31T23:32:59.352Z,86.22
2019-01-31T23:35:27.916Z,86.21
2019-01-31T23:37:56.530Z,86.16
2019-01-31T23:40:25.081Z,86.17
2019-01-31T23:42:53.648Z,86.19
2019-01-31T23:45:22.904Z,86.13
2019-01-31T23:47:51.601Z,86.09
2019-01-31T23:50:20.142Z,85.99
2019-01-31T23:52:48.662Z,86.29
2019-01-31T23:55:17.883Z,86.29
2019-01-31T23:57:46.444Z,86.14
